createdAt,value
2022-08-12T00:01:02.405Z,22.86
2022-08-12T00:03:47.678Z,22.76
2022-08-12T00:06:33.899Z,22.76
2022-08-12T00:09:23.148Z,22.49
2022-08-12T00:12:11.337Z,22.61
2022-08-12T00:14:56.725Z,22.74
2022-08-12T00:17:42.483Z,23.04
2022-08-12T00:20:29.807Z,22.81
2022-08-12T00:23:16.552Z,22.75
2022-08-12T00:26:22.861Z,22.73
2022-08-12T00:29:11.521Z,22.69
2022-08-12T00:31:58.197Z,22.61
2022-08-12T00:34:46.168Z,22.42
2022-08-12T00:37:34.052Z,22.64
2022-08-12T00:40:19.668Z,22.50
2022-08-12T00:42:48.475Z,22.40
2022-08-12T00:45:15.173Z,22.56
2022-08-12T00:47:42.953Z,22.16
2022-08-12T00:50:17.829Z,22.29
2022-08-12T00:52:50.349Z,22.24
2022-08-12T00:55:18.244Z,22.27
2022-08-12T00:57:48.559Z,22.27
2022-08-12T01:00:19.554Z,21.94
2022-08-12T01:02:57.501Z,21.77
2022-08-12T01:05:44.334Z,21.90
2022-08-12T01:08:30.593Z,21.84
2022-08-12T01:11:15.662Z,21.86
2022-08-12T01:13:47.561Z,21.60
2022-08-12T01:16:18.079Z,21.66
2022-08-12T01:18:45.335Z,21.50
2022-08-12T01:21:27.225Z,21.71
2022-08-12T01:24:32.142Z,21.62
2022-08-12T01:27:01.422Z,21.99
2022-08-12T01:29:32.851Z,21.94
2022-08-12T01:32:05.394Z,21.89
2022-08-12T01:34:38.440Z,21.70
2022-08-12T01:37:08.835Z,21.64
2022-08-12T01:39:38.791Z,21.26
2022-08-12T01:42:26.802Z,21.47
2022-08-12T01:44:54.274Z,21.16
2022-08-12T01:47:33.059Z,21.23
2022-08-12T01:50:21.275Z,21.32
2022-08-12T01:52:53.875Z,21.28
2022-08-12T01:55:34.621Z,21.04
2022-08-12T01:58:25.309Z,21.08
2022-08-12T02:01:08.922Z,21.10
2022-08-12T02:04:20.053Z,20.98
2022-08-12T02:07:19.526Z,20.88
2022-08-12T02:10:50.443Z,20.78
2022-08-12T02:13:48.205Z,20.85
2022-08-12T02:16:23.580Z,20.64
2022-08-12T02:19:22.595Z,20.68
2022-08-12T02:22:12.168Z,20.68
2022-08-12T02:24:42.550Z,20.76
2022-08-12T02:27:10.785Z,20.58
2022-08-12T02:29:40.432Z,20.52
2022-08-12T02:32:08.605Z,20.50
2022-08-12T02:34:35.596Z,20.53
2022-08-12T02:37:03.770Z,20.55
2022-08-12T02:39:34.028Z,20.34
2022-08-12T02:42:04.695Z,20.23
2022-08-12T02:44:40.155Z,20.18
2022-08-12T02:47:08.296Z,20.25
2022-08-12T02:49:58.732Z,20.19
2022-08-12T02:52:27.399Z,20.15
2022-08-12T02:55:01.510Z,19.93
2022-08-12T02:57:30.323Z,20.01
2022-08-12T02:59:57.908Z,20.13
2022-08-12T03:02:28.658Z,20.20
2022-08-12T03:04:57.366Z,20.02
2022-08-12T03:07:24.934Z,20.04
2022-08-12T03:10:06.969Z,20.02
2022-08-12T03:12:40.012Z,19.94
2022-08-12T03:15:22.197Z,19.83
2022-08-12T03:18:26.445Z,19.99
2022-08-12T03:20:51.396Z,19.85
2022-08-12T03:23:29.683Z,19.74
2022-08-12T03:25:59.428Z,19.79
2022-08-12T03:28:48.686Z,19.73
2022-08-12T03:31:15.361Z,19.71
2022-08-12T03:33:45.672Z,19.75
2022-08-12T03:36:31.688Z,19.70
2022-08-12T03:39:18.746Z,20.07
2022-08-12T03:42:01.719Z,19.86
2022-08-12T03:44:56.986Z,19.75
2022-08-12T03:47:53.902Z,19.78
2022-08-12T03:50:39.404Z,19.87
2022-08-12T03:53:27.309Z,19.74
2022-08-12T03:56:13.344Z,19.70
2022-08-12T03:58:59.860Z,19.77
2022-08-12T04:01:27.779Z,19.86
2022-08-12T04:03:55.253Z,19.79
2022-08-12T04:06:35.593Z,19.69
2022-08-12T04:09:15.788Z,19.78
2022-08-12T04:12:03.002Z,19.89
2022-08-12T04:14:29.812Z,19.82
2022-08-12T04:16:57.305Z,19.91
2022-08-12T04:19:26.211Z,20.04
2022-08-12T04:22:01.790Z,19.90
2022-08-12T04:24:35.980Z,19.87
2022-08-12T04:27:07.316Z,20.04
2022-08-12T04:30:29.338Z,19.92
2022-08-12T04:32:21.950Z,20.04
2022-08-12T04:34:49.897Z,20.11
2022-08-12T04:37:16.698Z,20.73
2022-08-12T04:39:46.588Z,21.25
2022-08-12T04:42:13.439Z,21.34
2022-08-12T04:44:40.173Z,21.93
2022-08-12T04:47:10.112Z,21.79
2022-08-12T04:49:38.228Z,22.12
2022-08-12T04:52:05.748Z,22.24
2022-08-12T04:54:34.091Z,22.12
2022-08-12T04:57:04.526Z,21.92
2022-08-12T04:59:47.562Z,21.98
2022-08-12T05:02:21.770Z,22.03
2022-08-12T05:05:00.551Z,22.38
2022-08-12T05:07:28.243Z,22.72
2022-08-12T05:10:00.853Z,23.03
2022-08-12T05:12:37.192Z,23.09
2022-08-12T05:15:16.734Z,23.36
2022-08-12T05:17:55.081Z,23.83
2022-08-12T05:20:22.552Z,24.06
2022-08-12T05:22:56.885Z,23.86
2022-08-12T05:25:25.026Z,24.23
2022-08-12T05:27:58.630Z,24.29
2022-08-12T05:30:33.447Z,24.60
2022-08-12T05:33:05.299Z,24.43
2022-08-12T05:35:39.919Z,24.92
2022-08-12T05:38:35.837Z,24.76
2022-08-12T05:41:05.050Z,24.92
2022-08-12T05:43:33.990Z,25.08
2022-08-12T05:46:00.654Z,25.04
2022-08-12T05:48:28.332Z,25.22
2022-08-12T05:50:56.753Z,25.61
2022-08-12T05:53:23.903Z,25.59
2022-08-12T05:55:53.213Z,26.14
2022-08-12T05:58:21.163Z,26.15
2022-08-12T06:00:48.166Z,25.79
2022-08-12T06:03:19.699Z,25.69
2022-08-12T06:05:55.056Z,26.25
2022-08-12T06:08:24.987Z,26.12
2022-08-12T06:10:52.210Z,25.68
2022-08-12T06:13:25.479Z,25.96
2022-08-12T06:16:07.326Z,26.31
2022-08-12T06:18:34.498Z,26.28
2022-08-12T06:21:01.848Z,26.43
2022-08-12T06:23:29.799Z,26.78
2022-08-12T06:25:57.730Z,26.96
2022-08-12T06:28:25.180Z,26.88
2022-08-12T06:31:15.302Z,26.86
2022-08-12T06:34:01.092Z,27.30
2022-08-12T06:36:33.373Z,27.38
2022-08-12T06:39:00.830Z,27.58
2022-08-12T06:42:02.630Z,27.21
2022-08-12T06:44:32.882Z,28.20
2022-08-12T06:47:00.283Z,28.57
2022-08-12T06:49:28.359Z,28.41
2022-08-12T06:51:56.625Z,27.32
2022-08-12T06:54:31.532Z,28.73
2022-08-12T06:57:04.032Z,28.86
2022-08-12T06:59:31.295Z,29.45
2022-08-12T07:01:58.576Z,29.33
2022-08-12T07:04:36.275Z,29.39
2022-08-12T07:07:08.541Z,29.19
2022-08-12T07:10:04.298Z,28.99
2022-08-12T07:12:22.534Z,29.68
2022-08-12T07:14:51.479Z,30.18
2022-08-12T07:17:18.826Z,29.76
2022-08-12T07:19:48.599Z,30.19
2022-08-12T07:22:16.627Z,30.74
2022-08-12T07:25:04.006Z,31.14
2022-08-12T07:27:31.092Z,30.86
2022-08-12T07:30:04.888Z,30.08
2022-08-12T07:32:31.931Z,30.90
2022-08-12T07:34:58.638Z,31.26
2022-08-12T07:37:25.279Z,31.13
2022-08-12T07:40:00.521Z,30.48
2022-08-12T07:42:29.363Z,31.01
2022-08-12T07:44:56.656Z,31.18
2022-08-12T07:47:24.236Z,30.75
2022-08-12T07:50:04.638Z,31.27
2022-08-12T07:52:33.179Z,31.52
2022-08-12T07:55:00.426Z,30.77
2022-08-12T07:57:27.075Z,31.64
2022-08-12T07:59:55.488Z,32.09
2022-08-12T08:02:26.923Z,32.07
2022-08-12T08:04:57.732Z,32.14
2022-08-12T08:07:30.415Z,32.32
2022-08-12T08:10:00.045Z,31.65
2022-08-12T08:12:46.901Z,32.09
2022-08-12T08:15:15.158Z,33.08
2022-08-12T08:17:57.781Z,32.41
2022-08-12T08:20:28.698Z,33.07
2022-08-12T08:22:57.989Z,32.53
2022-08-12T08:25:36.335Z,32.47
2022-08-12T08:28:14.642Z,33.01
2022-08-12T08:30:43.949Z,32.62
2022-08-12T08:33:23.139Z,33.42
2022-08-12T08:35:54.264Z,32.84
2022-08-12T08:38:31.841Z,33.50
2022-08-12T08:42:16.100Z,33.40
2022-08-12T08:44:06.051Z,33.30
2022-08-12T08:46:37.682Z,33.92
2022-08-12T08:49:05.368Z,33.24
2022-08-12T08:51:32.754Z,33.80
2022-08-12T08:53:59.471Z,33.42
2022-08-12T08:56:27.161Z,34.03
2022-08-12T08:58:53.878Z,34.64
2022-08-12T09:01:23.402Z,33.77
2022-08-12T09:05:08.434Z,32.87
2022-08-12T09:06:53.407Z,33.94
2022-08-12T09:09:20.850Z,34.27
2022-08-12T09:12:11.934Z,34.51
2022-08-12T09:17:42.791Z,34.36
2022-08-12T09:20:15.992Z,35.04
2022-08-12T09:22:43.057Z,33.71
2022-08-12T09:28:18.492Z,34.19
2022-08-12T09:30:53.830Z,33.86
2022-08-12T09:34:25.932Z,34.30
2022-08-12T09:36:31.169Z,34.99
2022-08-12T09:40:05.030Z,35.02
2022-08-12T09:42:41.075Z,34.40
2022-08-12T09:45:22.754Z,33.48
2022-08-12T09:47:59.280Z,33.55
2022-08-12T09:50:27.660Z,32.85
2022-08-12T09:53:15.078Z,33.84
2022-08-12T09:55:59.635Z,34.92
2022-08-12T09:58:58.901Z,34.65
2022-08-12T10:01:24.406Z,34.10
2022-08-12T10:03:55.491Z,34.77
2022-08-12T10:06:36.038Z,34.32
2022-08-12T10:09:06.747Z,33.31
2022-08-12T10:12:11.589Z,34.31
2022-08-12T10:14:39.978Z,35.11
2022-08-12T10:17:22.708Z,34.93
2022-08-12T10:19:52.849Z,35.22
2022-08-12T10:22:39.007Z,34.85
2022-08-12T10:26:33.823Z,33.73
2022-08-12T10:28:38.272Z,34.98
2022-08-12T10:31:05.942Z,34.22
2022-08-12T10:33:55.068Z,34.68
2022-08-12T10:36:36.205Z,35.01
2022-08-12T10:40:01.879Z,35.65
2022-08-12T10:42:29.505Z,35.79
2022-08-12T10:45:05.150Z,35.42
2022-08-12T10:48:07.323Z,34.34
2022-08-12T10:50:29.540Z,34.15
2022-08-12T10:53:09.046Z,33.65
2022-08-12T10:55:36.083Z,34.37
2022-08-12T10:58:14.588Z,34.72
2022-08-12T11:01:26.299Z,32.77
2022-08-12T11:04:26.471Z,33.07
2022-08-12T11:07:06.572Z,34.00
2022-08-12T11:09:55.554Z,32.71
2022-08-12T11:12:58.169Z,33.65
2022-08-12T11:14:56.764Z,34.42
2022-08-12T11:17:52.361Z,34.49
2022-08-12T11:20:15.088Z,34.26
2022-08-12T11:22:42.307Z,35.14
2022-08-12T11:25:24.919Z,35.52
2022-08-12T11:28:13.493Z,35.25
2022-08-12T11:30:40.684Z,35.23
2022-08-12T11:33:11.694Z,35.24
2022-08-12T11:35:42.986Z,36.09
2022-08-12T11:38:10.933Z,35.91
2022-08-12T11:40:38.021Z,36.03
2022-08-12T11:43:19.141Z,35.64
2022-08-12T11:45:47.705Z,34.94
2022-08-12T11:48:20.490Z,35.70
2022-08-12T11:50:54.375Z,35.72
2022-08-12T11:54:01.173Z,35.33
2022-08-12T11:56:08.213Z,36.01
2022-08-12T12:01:58.851Z,34.65
2022-08-12T12:02:01.567Z,34.76
2022-08-12T12:04:11.848Z,34.64
2022-08-12T12:06:38.729Z,33.08
2022-08-12T12:09:08.035Z,33.92
2022-08-12T12:11:48.983Z,35.19
2022-08-12T12:14:17.816Z,34.68
2022-08-12T12:16:48.249Z,35.42
2022-08-12T12:19:17.759Z,33.70
2022-08-12T12:21:47.814Z,33.58
2022-08-12T12:24:21.307Z,35.03
2022-08-12T12:27:00.277Z,34.32
2022-08-12T12:30:17.533Z,35.87
2022-08-12T12:32:19.251Z,34.42
2022-08-12T12:35:13.848Z,34.21
2022-08-12T12:38:04.168Z,34.51
2022-08-12T12:40:34.387Z,35.88
2022-08-12T12:43:05.105Z,35.66
2022-08-12T12:45:35.476Z,34.00
2022-08-12T12:48:05.575Z,34.33
2022-08-12T12:50:45.053Z,34.79
2022-08-12T12:54:08.746Z,35.55
2022-08-12T12:56:05.891Z,36.24
2022-08-12T12:58:34.015Z,35.99
2022-08-12T13:01:04.783Z,35.30
2022-08-12T13:03:49.115Z,35.33
2022-08-12T13:06:16.241Z,35.46
2022-08-12T13:08:46.857Z,33.86
2022-08-12T13:11:14.792Z,33.83
2022-08-12T13:14:07.277Z,35.22
2022-08-12T13:16:30.385Z,35.47
2022-08-12T13:18:57.379Z,35.45
2022-08-12T13:21:36.750Z,34.57
2022-08-12T13:24:10.743Z,33.89
2022-08-12T13:26:40.000Z,34.73
2022-08-12T13:29:11.239Z,34.87
2022-08-12T13:32:17.605Z,35.48
2022-08-12T13:34:34.809Z,35.00
2022-08-12T13:37:09.199Z,34.67
2022-08-12T13:39:37.453Z,34.18
2022-08-12T13:42:14.660Z,34.65
2022-08-12T13:44:42.492Z,34.96
2022-08-12T13:47:10.356Z,35.84
2022-08-12T13:49:53.673Z,35.42
2022-08-12T13:52:23.500Z,35.83
2022-08-12T13:54:56.243Z,35.42
2022-08-12T13:57:25.623Z,35.81
2022-08-12T13:59:55.488Z,35.20
2022-08-12T14:02:27.315Z,35.99
2022-08-12T14:04:56.558Z,35.89
2022-08-12T14:07:26.009Z,34.90
2022-08-12T14:10:12.297Z,34.93
2022-08-12T14:12:54.399Z,34.86
2022-08-12T14:15:35.031Z,35.81
2022-08-12T14:18:12.990Z,35.44
2022-08-12T14:20:41.675Z,34.35
2022-08-12T14:23:34.239Z,33.96
2022-08-12T14:25:58.931Z,34.55
2022-08-12T14:28:26.982Z,34.90
2022-08-12T14:31:01.201Z,34.27
2022-08-12T14:33:43.333Z,35.17
2022-08-12T14:36:12.888Z,34.65
2022-08-12T14:38:42.122Z,35.28
2022-08-12T14:41:14.699Z,34.40
2022-08-12T14:43:44.347Z,33.99
2022-08-12T14:46:29.838Z,34.49
2022-08-12T14:48:56.685Z,34.12
2022-08-12T14:52:42.765Z,33.97
2022-08-12T14:57:20.061Z,34.09
2022-08-12T15:00:10.205Z,34.74
2022-08-12T15:02:38.969Z,34.01
2022-08-12T15:05:06.664Z,34.40
2022-08-12T15:07:51.346Z,33.22
2022-08-12T15:10:31.665Z,33.74
2022-08-12T15:12:59.946Z,33.70
2022-08-12T15:15:27.784Z,33.92
2022-08-12T15:18:02.176Z,33.30
2022-08-12T15:20:37.531Z,33.65
2022-08-12T15:23:18.090Z,34.24
2022-08-12T15:26:02.483Z,34.85
2022-08-12T15:28:32.629Z,34.12
2022-08-12T15:30:59.753Z,34.41
2022-08-12T15:33:44.623Z,34.51
2022-08-12T15:36:14.528Z,33.98
2022-08-12T15:38:46.710Z,33.47
2022-08-12T15:41:15.423Z,34.89
2022-08-12T15:44:16.051Z,33.82
2022-08-12T15:46:32.184Z,33.94
2022-08-12T15:48:59.418Z,33.69
2022-08-12T15:51:57.588Z,33.35
2022-08-12T15:54:33.352Z,33.42
2022-08-12T15:57:08.101Z,33.98
2022-08-12T16:00:03.721Z,33.30
2022-08-12T16:02:29.422Z,33.62
2022-08-12T16:04:56.489Z,33.15
2022-08-12T16:07:29.870Z,33.31
2022-08-12T16:10:05.994Z,33.47
2022-08-12T16:12:43.729Z,33.04
2022-08-12T16:15:24.945Z,32.88
2022-08-12T16:18:14.960Z,33.31
2022-08-12T16:20:41.556Z,32.84
2022-08-12T16:23:26.860Z,32.89
2022-08-12T16:26:14.083Z,33.03
2022-08-12T16:28:43.591Z,33.15
2022-08-12T16:31:14.530Z,33.09
2022-08-12T16:33:59.488Z,32.72
2022-08-12T16:36:30.794Z,32.32
2022-08-12T16:39:01.333Z,32.77
2022-08-12T16:41:29.142Z,32.68
2022-08-12T16:44:05.206Z,32.28
2022-08-12T16:46:33.757Z,32.53
2022-08-12T16:49:09.265Z,33.02
2022-08-12T16:51:46.490Z,31.93
2022-08-12T16:54:16.393Z,32.54
2022-08-12T16:56:55.006Z,32.34
2022-08-12T16:59:31.137Z,32.92
2022-08-12T17:02:31.151Z,32.24
2022-08-12T17:05:01.032Z,32.39
2022-08-12T17:07:36.749Z,32.71
2022-08-12T17:10:12.011Z,32.64
2022-08-12T17:12:39.096Z,32.28
2022-08-12T17:15:50.600Z,32.22
2022-08-12T17:18:39.156Z,32.35
2022-08-12T17:20:46.722Z,32.54
2022-08-12T17:23:15.885Z,32.19
2022-08-12T17:25:50.234Z,32.01
2022-08-12T17:28:18.203Z,32.20
2022-08-12T17:30:45.733Z,32.05
2022-08-12T17:33:24.939Z,32.20
2022-08-12T17:35:53.247Z,31.65
2022-08-12T17:38:21.014Z,32.09
2022-08-12T17:40:48.508Z,32.01
2022-08-12T17:43:54.878Z,32.45
2022-08-12T17:46:12.909Z,31.90
2022-08-12T17:48:55.747Z,31.98
2022-08-12T17:51:25.268Z,31.81
2022-08-12T17:54:11.676Z,32.16
2022-08-12T17:56:43.268Z,31.91
2022-08-12T17:59:12.349Z,31.37
2022-08-12T18:01:43.349Z,31.14
2022-08-12T18:04:22.116Z,31.25
2022-08-12T18:06:53.982Z,31.44
2022-08-12T18:09:24.550Z,30.82
2022-08-12T18:12:11.865Z,31.76
2022-08-12T18:14:41.113Z,31.40
2022-08-12T18:17:09.658Z,31.02
2022-08-12T18:20:06.501Z,31.23
2022-08-12T18:22:30.344Z,31.19
2022-08-12T18:25:06.539Z,30.85
2022-08-12T18:27:45.714Z,30.83
2022-08-12T18:30:20.866Z,30.81
2022-08-12T18:33:04.476Z,30.62
2022-08-12T18:35:47.977Z,30.79
2022-08-12T18:38:22.282Z,30.72
2022-08-12T18:41:09.415Z,30.40
2022-08-12T18:43:59.471Z,30.48
2022-08-12T18:46:47.395Z,30.45
2022-08-12T18:49:38.065Z,30.51
2022-08-12T18:52:08.076Z,30.20
2022-08-12T18:54:48.810Z,30.44
2022-08-12T18:58:07.099Z,29.95
2022-08-12T19:00:18.875Z,30.38
2022-08-12T19:02:54.431Z,29.93
2022-08-12T19:05:23.378Z,30.01
2022-08-12T19:08:10.882Z,30.18
2022-08-12T19:10:42.813Z,29.92
2022-08-12T19:13:36.558Z,29.95
2022-08-12T19:16:10.807Z,29.91
2022-08-12T19:18:40.945Z,29.94
2022-08-12T19:21:16.123Z,30.12
2022-08-12T19:23:43.573Z,29.33
2022-08-12T19:26:12.445Z,29.41
2022-08-12T19:28:40.103Z,29.72
2022-08-12T19:31:57.361Z,29.13
2022-08-12T19:38:02.636Z,29.57
2022-08-12T19:40:31.468Z,29.32
2022-08-12T19:43:18.865Z,29.26
2022-08-12T19:45:54.385Z,29.05
2022-08-12T19:48:30.471Z,29.12
2022-08-12T19:50:57.951Z,29.20
2022-08-12T19:53:25.189Z,29.13
2022-08-12T19:55:56.382Z,29.25
2022-08-12T19:58:25.046Z,28.91
2022-08-12T20:00:53.362Z,28.78
2022-08-12T20:03:39.925Z,28.78
2022-08-12T20:06:16.109Z,28.62
2022-08-12T20:08:56.065Z,28.57
2022-08-12T20:12:09.440Z,28.65
2022-08-12T20:14:14.143Z,28.51
2022-08-12T20:16:52.198Z,28.23
2022-08-12T20:19:21.168Z,28.45
2022-08-12T20:21:50.441Z,28.23
2022-08-12T20:24:17.120Z,28.24
2022-08-12T20:26:46.610Z,28.51
2022-08-12T20:29:14.904Z,28.01
2022-08-12T20:31:43.868Z,28.07
2022-08-12T20:34:12.081Z,28.24
2022-08-12T20:36:44.316Z,28.06
2022-08-12T20:39:23.459Z,28.18
2022-08-12T20:42:07.036Z,27.80
2022-08-12T20:44:40.216Z,27.61
2022-08-12T20:47:19.708Z,27.81
2022-08-12T20:49:55.819Z,27.59
2022-08-12T20:52:30.176Z,27.56
2022-08-12T20:54:57.943Z,27.37
2022-08-12T20:57:38.431Z,27.33
2022-08-12T21:00:16.659Z,27.36
2022-08-12T21:02:50.084Z,27.18
2022-08-12T21:06:11.809Z,26.92
2022-08-12T21:08:39.909Z,26.84
2022-08-12T21:11:06.698Z,26.82
2022-08-12T21:13:39.062Z,26.98
2022-08-12T21:16:09.982Z,26.75
2022-08-12T21:18:37.668Z,26.83
2022-08-12T21:21:06.850Z,27.00
2022-08-12T21:23:52.296Z,26.80
2022-08-12T21:26:23.345Z,26.85
2022-08-12T21:29:01.105Z,26.45
2022-08-12T21:32:39.849Z,26.61
2022-08-12T21:34:26.097Z,26.51
2022-08-12T21:36:53.317Z,26.46
2022-08-12T21:39:32.618Z,26.32
2022-08-12T21:42:06.924Z,26.46
2022-08-12T21:45:46.867Z,26.31
2022-08-12T21:47:22.643Z,26.20
2022-08-12T21:50:02.301Z,26.20
2022-08-12T21:52:34.957Z,26.03
2022-08-12T21:55:08.513Z,25.94
2022-08-12T21:57:50.717Z,26.00
2022-08-12T22:00:23.933Z,25.71
2022-08-12T22:04:02.256Z,25.73
2022-08-12T22:06:20.289Z,25.52
2022-08-12T22:09:02.281Z,25.32
2022-08-12T22:11:41.071Z,25.52
2022-08-12T22:14:10.285Z,25.40
2022-08-12T22:16:50.040Z,25.32
2022-08-12T22:19:20.885Z,25.25
2022-08-12T22:21:53.303Z,25.16
2022-08-12T22:24:26.700Z,25.24
2022-08-12T22:27:07.971Z,25.14
2022-08-12T22:30:07.886Z,25.03
2022-08-12T22:32:42.000Z,25.00
2022-08-12T22:35:55.635Z,24.92
2022-08-12T22:38:21.167Z,24.83
2022-08-12T22:40:49.728Z,24.83
2022-08-12T22:43:35.965Z,24.91
2022-08-12T22:46:22.592Z,25.23
2022-08-12T22:48:53.793Z,24.86
2022-08-12T22:51:22.350Z,24.65
2022-08-12T22:53:53.640Z,24.65
2022-08-12T22:56:30.775Z,24.62
2022-08-12T22:59:02.928Z,24.66
2022-08-12T23:01:52.349Z,24.55
2022-08-12T23:04:28.049Z,24.53
2022-08-12T23:06:58.427Z,24.34
2022-08-12T23:09:47.963Z,24.40
2022-08-12T23:12:37.398Z,24.37
2022-08-12T23:15:08.698Z,24.29
2022-08-12T23:17:41.183Z,24.32
2022-08-12T23:20:10.942Z,24.28
2022-08-12T23:22:40.258Z,23.96
2022-08-12T23:25:19.138Z,24.04
2022-08-12T23:28:29.238Z,23.80
2022-08-12T23:30:58.730Z,24.03
2022-08-12T23:34:01.348Z,24.07
2022-08-12T23:36:39.159Z,23.80
2022-08-12T23:40:15.480Z,23.91
2022-08-12T23:42:17.455Z,23.86
2022-08-12T23:44:47.294Z,23.92
2022-08-12T23:47:17.520Z,23.93
2022-08-12T23:49:57.455Z,23.78
2022-08-12T23:52:32.343Z,23.79
2022-08-12T23:55:24.015Z,23.94
2022-08-12T23:58:17.341Z,23.77
